createdAt,value
2018-03-15T00:00:02.720Z,94539
2018-03-15T00:00:35.105Z,94539
2018-03-15T00:01:07.400Z,94537
2018-03-15T00:01:40.360Z,94540
2018-03-15T00:02:12.594Z,94541
2018-03-15T00:02:44.880Z,94539
2018-03-15T00:03:17.983Z,94538
2018-03-15T00:03:50.214Z,94541
2018-03-15T00:04:23.281Z,94538
2018-03-15T00:04:55.605Z,94538
2018-03-15T00:05:27.871Z,94543
2018-03-15T00:06:00.236Z,94538
2018-03-15T00:06:32.382Z,94542
2018-03-15T00:07:04.616Z,94538
2018-03-15T00:07:36.792Z,94540
2018-03-15T00:08:09.097Z,94540
2018-03-15T00:08:41.426Z,94531
2018-03-15T00:09:13.432Z,94534
2018-03-15T00:09:45.703Z,94537
2018-03-15T00:10:17.696Z,94533
2018-03-15T00:10:50.003Z,94536
2018-03-15T00:11:22.278Z,94536
2018-03-15T00:11:54.506Z,94536
2018-03-15T00:12:26.849Z,94537
2018-03-15T00:12:58.999Z,94529
2018-03-15T00:13:31.190Z,94532
2018-03-15T00:14:03.326Z,94532
2018-03-15T00:14:35.333Z,94529
2018-03-15T00:15:08.390Z,94529
2018-03-15T00:15:40.715Z,94525
2018-03-15T00:16:13.005Z,94525
2018-03-15T00:16:45.230Z,94524
2018-03-15T00:17:17.551Z,94523
2018-03-15T00:17:50.656Z,94520
2018-03-15T00:18:22.913Z,94523
2018-03-15T00:18:55.149Z,94521
2018-03-15T00:19:27.350Z,94521
2018-03-15T00:19:59.371Z,94517
2018-03-15T00:20:31.621Z,94520
2018-03-15T00:21:03.868Z,94521
2018-03-15T00:21:36.091Z,94515
2018-03-15T00:22:08.276Z,94513
2018-03-15T00:22:40.405Z,94513
2018-03-15T00:23:12.630Z,94510
2018-03-15T00:23:44.901Z,94512
2018-03-15T00:24:17.090Z,94510
2018-03-15T00:24:49.374Z,94507
2018-03-15T00:25:21.728Z,94508
2018-03-15T00:25:53.898Z,94511
2018-03-15T00:26:26.192Z,94508
2018-03-15T00:26:58.433Z,94508
2018-03-15T00:27:30.430Z,94508
2018-03-15T00:28:02.633Z,94504
2018-03-15T00:28:34.804Z,94504
2018-03-15T00:29:07.109Z,94501
2018-03-15T00:29:39.115Z,94504
2018-03-15T00:30:11.907Z,94499
2018-03-15T00:30:43.929Z,94507
2018-03-15T00:31:16.730Z,94501
2018-03-15T00:31:48.760Z,94498
2018-03-15T00:32:20.798Z,94498
2018-03-15T00:32:53.643Z,94499
2018-03-15T00:33:25.647Z,94501
2018-03-15T00:33:57.670Z,94501
2018-03-15T00:34:30.469Z,94504
2018-03-15T00:35:02.492Z,94499
2018-03-15T00:35:35.281Z,94501
2018-03-15T00:36:07.325Z,94502
2018-03-15T00:36:39.375Z,94499
2018-03-15T00:37:11.400Z,94497
2018-03-15T00:37:43.426Z,94492
2018-03-15T00:38:15.456Z,94495
2018-03-15T00:38:47.530Z,94496
2018-03-15T00:39:19.573Z,94494
2018-03-15T00:39:51.595Z,94494
2018-03-15T00:40:23.622Z,94491
2018-03-15T00:40:56.424Z,94489
2018-03-15T00:41:28.449Z,94487
2018-03-15T00:42:00.526Z,94490
2018-03-15T00:42:32.581Z,94488
2018-03-15T00:43:04.618Z,94490
2018-03-15T00:43:36.653Z,94481
2018-03-15T00:44:09.435Z,94486
2018-03-15T00:44:41.461Z,94484
2018-03-15T00:45:14.265Z,94486
2018-03-15T00:45:46.306Z,94481
2018-03-15T00:46:18.352Z,94482
2018-03-15T00:46:51.133Z,94477
2018-03-15T00:47:23.175Z,94474
2018-03-15T00:47:55.213Z,94473
2018-03-15T00:48:27.999Z,94475
2018-03-15T00:49:00.063Z,94471
2018-03-15T00:49:32.093Z,94466
2018-03-15T00:50:04.136Z,94469
2018-03-15T00:50:36.981Z,94464
2018-03-15T00:51:09.032Z,94463
2018-03-15T00:51:41.071Z,94456
2018-03-15T00:52:13.102Z,94455
2018-03-15T00:52:45.138Z,94454
2018-03-15T00:53:17.173Z,94452
2018-03-15T00:53:49.967Z,94452
2018-03-15T00:54:22.011Z,94455
2018-03-15T00:54:54.058Z,94453
2018-03-15T00:55:26.110Z,94450
2018-03-15T00:55:58.161Z,94449
2018-03-15T00:56:30.180Z,94447
2018-03-15T00:57:03.049Z,94444
2018-03-15T00:57:35.074Z,94442
2018-03-15T00:58:07.097Z,94445
2018-03-15T00:58:39.139Z,94441
2018-03-15T00:59:11.186Z,94441
2018-03-15T00:59:43.217Z,94444
2018-03-15T01:00:16.014Z,94443
2018-03-15T01:00:48.036Z,94439
2018-03-15T01:01:20.826Z,94440
2018-03-15T01:01:52.872Z,94438
2018-03-15T01:02:24.959Z,94440
2018-03-15T01:02:56.982Z,94432
2018-03-15T01:03:29.040Z,94432
2018-03-15T01:04:01.079Z,94430
2018-03-15T01:04:33.152Z,94428
2018-03-15T01:05:05.184Z,94432
2018-03-15T01:05:37.214Z,94429
2018-03-15T01:06:10.002Z,94429
2018-03-15T01:06:42.038Z,94423
2018-03-15T01:07:14.830Z,94424
2018-03-15T01:07:46.865Z,94425
2018-03-15T01:08:18.910Z,94419
2018-03-15T01:08:51.704Z,94419
2018-03-15T01:09:23.721Z,94421
2018-03-15T01:09:56.508Z,94419
2018-03-15T01:10:28.529Z,94415
2018-03-15T01:11:00.566Z,94419
2018-03-15T01:11:32.586Z,94414
2018-03-15T01:12:04.621Z,94415
2018-03-15T01:12:36.652Z,94411
2018-03-15T01:13:08.689Z,94412
2018-03-15T01:13:40.743Z,94410
2018-03-15T01:14:12.781Z,94409
2018-03-15T01:14:44.814Z,94407
2018-03-15T01:15:17.592Z,94413
2018-03-15T01:15:49.629Z,94405
2018-03-15T01:16:22.426Z,94405
2018-03-15T01:16:54.467Z,94405
2018-03-15T01:17:26.524Z,94405
2018-03-15T01:17:59.352Z,94404
2018-03-15T01:18:31.413Z,94404
2018-03-15T01:19:03.467Z,94404
2018-03-15T01:19:36.281Z,94404
2018-03-15T01:20:08.309Z,94402
2018-03-15T01:20:40.349Z,94403
2018-03-15T01:21:13.146Z,94397
2018-03-15T01:21:45.179Z,94401
2018-03-15T01:22:17.269Z,94398
2018-03-15T01:22:49.282Z,94399
2018-03-15T01:23:21.326Z,94397
2018-03-15T01:23:54.121Z,94398
2018-03-15T01:24:26.153Z,94391
2018-03-15T01:24:58.193Z,94391
2018-03-15T01:25:30.978Z,94388
2018-03-15T01:26:03.009Z,94386
2018-03-15T01:26:35.790Z,94383
2018-03-15T01:27:07.825Z,94386
2018-03-15T01:27:40.630Z,94387
2018-03-15T01:28:12.677Z,94384
2018-03-15T01:28:44.702Z,94387
2018-03-15T01:29:17.500Z,94387
2018-03-15T01:29:49.539Z,94390
2018-03-15T01:30:21.554Z,94388
2018-03-15T01:30:53.584Z,94386
2018-03-15T01:31:25.619Z,94385
2018-03-15T01:31:57.650Z,94386
2018-03-15T01:32:29.682Z,94382
2018-03-15T01:33:02.480Z,94383
2018-03-15T01:33:34.507Z,94385
2018-03-15T01:34:06.529Z,94384
2018-03-15T01:34:38.562Z,94380
2018-03-15T01:35:10.587Z,94382
2018-03-15T01:35:42.617Z,94378
2018-03-15T01:36:14.652Z,94381
2018-03-15T01:36:47.437Z,94379
2018-03-15T01:37:19.498Z,94379
2018-03-15T01:37:51.525Z,94377
2018-03-15T01:38:24.357Z,94379
2018-03-15T01:38:56.361Z,94380
2018-03-15T01:39:28.380Z,94377
2018-03-15T01:40:00.412Z,94377
2018-03-15T01:40:32.444Z,94380
2018-03-15T01:41:04.510Z,94380
2018-03-15T01:41:36.528Z,94381
2018-03-15T01:42:08.591Z,94380
2018-03-15T01:42:40.664Z,94380
2018-03-15T01:43:12.705Z,94378
2018-03-15T01:43:44.745Z,94379
2018-03-15T01:44:16.784Z,94381
2018-03-15T01:44:48.805Z,94378
2018-03-15T01:45:21.597Z,94380
2018-03-15T01:45:53.639Z,94380
2018-03-15T01:46:25.666Z,94380
2018-03-15T01:46:57.700Z,94376
2018-03-15T01:47:29.729Z,94378
2018-03-15T01:48:01.764Z,94373
2018-03-15T01:48:33.793Z,94369
2018-03-15T01:49:06.602Z,94373
2018-03-15T01:49:38.628Z,94367
2018-03-15T01:50:10.669Z,94367
2018-03-15T01:50:43.470Z,94368
2018-03-15T01:51:15.541Z,94366
2018-03-15T01:51:47.569Z,94364
2018-03-15T01:52:19.621Z,94367
2018-03-15T01:52:51.655Z,94368
2018-03-15T01:53:23.714Z,94366
2018-03-15T01:53:55.738Z,94367
2018-03-15T01:54:27.797Z,94372
2018-03-15T01:54:59.840Z,94371
2018-03-15T01:55:32.653Z,94367
2018-03-15T01:56:04.692Z,94368
2018-03-15T01:56:36.721Z,94369
2018-03-15T01:57:08.763Z,94362
2018-03-15T01:57:41.560Z,94364
2018-03-15T01:58:13.592Z,94367
2018-03-15T01:58:45.628Z,94370
2018-03-15T01:59:18.437Z,94367
2018-03-15T01:59:50.477Z,94369
2018-03-15T02:00:22.506Z,94368
2018-03-15T02:00:55.309Z,94362
2018-03-15T02:01:27.336Z,94357
2018-03-15T02:01:59.384Z,94363
2018-03-15T02:02:31.435Z,94362
2018-03-15T02:03:04.227Z,94359
2018-03-15T02:03:36.255Z,94364
2018-03-15T02:04:09.051Z,94365
2018-03-15T02:04:41.085Z,94363
2018-03-15T02:05:13.114Z,94361
2018-03-15T02:05:45.918Z,94367
2018-03-15T02:06:17.938Z,94363
2018-03-15T02:06:50.731Z,94368
2018-03-15T02:07:22.770Z,94360
2018-03-15T02:07:54.830Z,94362
2018-03-15T02:08:26.862Z,94364
2018-03-15T02:08:59.684Z,94365
2018-03-15T02:09:31.715Z,94364
2018-03-15T02:10:03.740Z,94363
2018-03-15T02:10:36.556Z,94364
2018-03-15T02:11:08.573Z,94366
2018-03-15T02:11:40.607Z,94365
2018-03-15T02:12:13.399Z,94364
2018-03-15T02:12:45.422Z,94365
2018-03-15T02:13:18.214Z,94366
2018-03-15T02:13:50.281Z,94370
2018-03-15T02:14:22.359Z,94369
2018-03-15T02:14:54.394Z,94369
2018-03-15T02:15:26.426Z,94364
2018-03-15T02:15:58.458Z,94365
2018-03-15T02:16:31.253Z,94363
2018-03-15T02:17:03.296Z,94367
2018-03-15T02:17:35.321Z,94366
2018-03-15T02:18:08.117Z,94363
2018-03-15T02:18:40.142Z,94359
2018-03-15T02:19:12.935Z,94362
2018-03-15T02:19:44.971Z,94363
2018-03-15T02:20:17.004Z,94355
2018-03-15T02:20:49.804Z,94359
2018-03-15T02:21:21.846Z,94355
2018-03-15T02:21:53.877Z,94357
2018-03-15T02:22:26.673Z,94357
2018-03-15T02:22:58.703Z,94354
2018-03-15T02:23:31.506Z,94358
2018-03-15T02:24:03.548Z,94358
2018-03-15T02:24:35.590Z,94360
2018-03-15T02:25:08.412Z,94362
2018-03-15T02:25:40.433Z,94358
2018-03-15T02:26:12.473Z,94361
2018-03-15T02:26:44.512Z,94362
2018-03-15T02:27:17.312Z,94356
2018-03-15T02:27:49.344Z,94358
2018-03-15T02:28:21.370Z,94359
2018-03-15T02:28:54.180Z,94351
2018-03-15T02:29:26.205Z,94353
2018-03-15T02:29:58.273Z,94351
2018-03-15T02:30:30.308Z,94354
2018-03-15T02:31:02.354Z,94350
2018-03-15T02:31:35.146Z,94352
2018-03-15T02:32:07.161Z,94351
2018-03-15T02:32:39.961Z,94353
2018-03-15T02:33:12.020Z,94353
2018-03-15T02:33:44.074Z,94352
2018-03-15T02:34:16.109Z,94352
2018-03-15T02:34:48.142Z,94350
2018-03-15T02:35:20.980Z,94355
2018-03-15T02:35:53.002Z,94346
2018-03-15T02:36:25.053Z,94354
2018-03-15T02:36:57.081Z,94352
2018-03-15T02:37:29.122Z,94348
2018-03-15T02:38:01.917Z,94348
2018-03-15T02:38:33.958Z,94351
2018-03-15T02:39:05.978Z,94348
2018-03-15T02:39:38.787Z,94351
2018-03-15T02:40:10.811Z,94355
2018-03-15T02:40:43.628Z,94353
2018-03-15T02:41:15.653Z,94348
2018-03-15T02:41:47.693Z,94347
2018-03-15T02:42:19.737Z,94351
2018-03-15T02:42:52.530Z,94350
2018-03-15T02:43:24.549Z,94349
2018-03-15T02:43:57.371Z,94352
2018-03-15T02:44:29.396Z,94347
2018-03-15T02:45:01.437Z,94349
2018-03-15T02:45:33.457Z,94348
2018-03-15T02:46:05.490Z,94348
2018-03-15T02:46:37.495Z,94343
2018-03-15T02:47:09.544Z,94345
2018-03-15T02:47:41.599Z,94343
2018-03-15T02:48:14.373Z,94341
2018-03-15T02:48:46.472Z,94339
2018-03-15T02:49:18.490Z,94341
2018-03-15T02:49:50.526Z,94338
2018-03-15T02:50:22.554Z,94343
2018-03-15T02:50:55.349Z,94340
2018-03-15T02:51:27.372Z,94341
2018-03-15T02:52:00.173Z,94339
2018-03-15T02:52:32.242Z,94341
2018-03-15T02:53:04.257Z,94342
2018-03-15T02:53:37.038Z,94339
2018-03-15T02:54:09.098Z,94344
2018-03-15T02:54:41.141Z,94343
2018-03-15T02:55:13.182Z,94342
2018-03-15T02:55:45.222Z,94337
2018-03-15T02:56:18.094Z,94341
2018-03-15T02:56:50.876Z,94342
2018-03-15T02:57:22.933Z,94339
2018-03-15T02:57:54.958Z,94341
2018-03-15T02:58:27.760Z,94343
2018-03-15T02:58:59.793Z,94340
2018-03-15T02:59:32.577Z,94343
2018-03-15T03:00:04.618Z,94344
2018-03-15T03:00:36.658Z,94340
2018-03-15T03:01:09.452Z,94340
2018-03-15T03:01:41.492Z,94340
2018-03-15T03:02:13.528Z,94340
2018-03-15T03:02:46.354Z,94339
2018-03-15T03:03:18.392Z,94338
2018-03-15T03:03:50.442Z,94344
2018-03-15T03:04:28.683Z,94343
2018-03-15T03:05:05.693Z,94343
2018-03-15T03:05:37.725Z,94342
2018-03-15T03:06:09.780Z,94339
2018-03-15T03:06:41.819Z,94336
2018-03-15T03:07:14.643Z,94340
2018-03-15T03:07:46.655Z,94342
2018-03-15T03:08:18.701Z,94334
2018-03-15T03:08:51.489Z,94335
2018-03-15T03:09:23.529Z,94333
2018-03-15T03:09:55.565Z,94333
2018-03-15T03:10:28.354Z,94326
2018-03-15T03:11:00.385Z,94325
2018-03-15T03:11:33.185Z,94328
2018-03-15T03:12:05.244Z,94332
2018-03-15T03:12:37.274Z,94332
2018-03-15T03:13:09.293Z,94334
2018-03-15T03:13:42.109Z,94332
2018-03-15T03:14:14.142Z,94333
2018-03-15T03:14:46.201Z,94336
2018-03-15T03:15:18.250Z,94339
2018-03-15T03:15:50.270Z,94337
2018-03-15T03:16:23.071Z,94341
2018-03-15T03:16:55.092Z,94339
2018-03-15T03:17:27.925Z,94339
2018-03-15T03:18:00.020Z,94336
2018-03-15T03:18:32.047Z,94338
2018-03-15T03:19:04.082Z,94331
2018-03-15T03:19:36.100Z,94338
2018-03-15T03:20:08.137Z,94334
2018-03-15T03:20:40.170Z,94333
2018-03-15T03:21:12.973Z,94333
2018-03-15T03:21:45.006Z,94333
2018-03-15T03:22:17.068Z,94331
2018-03-15T03:22:49.135Z,94330
2018-03-15T03:23:21.168Z,94328
2018-03-15T03:23:53.201Z,94323
2018-03-15T03:24:26.012Z,94322
2018-03-15T03:24:58.041Z,94323
2018-03-15T03:25:30.077Z,94327
2018-03-15T03:26:02.206Z,94329
2018-03-15T03:26:34.226Z,94330
2018-03-15T03:27:06.232Z,94331
2018-03-15T03:27:38.328Z,94333
2018-03-15T03:28:10.386Z,94335
2018-03-15T03:28:42.394Z,94334
2018-03-15T03:29:14.473Z,94334
2018-03-15T03:29:46.500Z,94341
2018-03-15T03:30:18.536Z,94340
2018-03-15T03:30:51.314Z,94337
2018-03-15T03:31:23.349Z,94334
2018-03-15T03:31:56.134Z,94334
2018-03-15T03:32:28.177Z,94333
2018-03-15T03:33:00.960Z,94332
2018-03-15T03:33:33.011Z,94331
2018-03-15T03:34:05.032Z,94330
2018-03-15T03:34:37.866Z,94331
2018-03-15T03:35:09.894Z,94326
2018-03-15T03:35:41.928Z,94321
2018-03-15T03:36:13.974Z,94321
2018-03-15T03:36:46.025Z,94321
2018-03-15T03:37:18.829Z,94318
2018-03-15T03:37:50.899Z,94319
2018-03-15T03:38:22.940Z,94322
2018-03-15T03:38:54.967Z,94312
2018-03-15T03:39:27.000Z,94320
2018-03-15T03:39:59.787Z,94311
2018-03-15T03:40:31.824Z,94315
2018-03-15T03:41:03.876Z,94316
2018-03-15T03:41:36.654Z,94313
2018-03-15T03:42:08.700Z,94313
2018-03-15T03:42:40.749Z,94314
2018-03-15T03:43:12.804Z,94310
2018-03-15T03:43:44.841Z,94315
2018-03-15T03:44:17.640Z,94309
2018-03-15T03:44:49.664Z,94311
2018-03-15T03:45:21.729Z,94310
2018-03-15T03:45:53.764Z,94307
2018-03-15T03:46:26.603Z,94308
2018-03-15T03:46:58.602Z,94306
2018-03-15T03:47:30.642Z,94303
2018-03-15T03:48:02.683Z,94304
2018-03-15T03:48:35.469Z,94302
2018-03-15T03:49:07.555Z,94303
2018-03-15T03:49:39.582Z,94300
2018-03-15T03:50:11.625Z,94304
2018-03-15T03:50:43.677Z,94303
2018-03-15T03:51:15.740Z,94303
2018-03-15T03:51:47.779Z,94302
2018-03-15T03:52:19.806Z,94299
2018-03-15T03:52:52.631Z,94300
2018-03-15T03:53:24.670Z,94299
2018-03-15T03:53:56.712Z,94301
2018-03-15T03:54:28.753Z,94299
2018-03-15T03:55:00.778Z,94298
2018-03-15T03:55:33.580Z,94298
2018-03-15T03:56:05.629Z,94292
2018-03-15T03:56:37.688Z,94294
2018-03-15T03:57:09.712Z,94289
2018-03-15T03:57:42.520Z,94295
2018-03-15T03:58:14.561Z,94292
2018-03-15T03:58:46.600Z,94291
2018-03-15T03:59:18.632Z,94291
2018-03-15T03:59:51.433Z,94293
2018-03-15T04:00:23.470Z,94291
2018-03-15T04:00:55.493Z,94292
2018-03-15T04:01:27.533Z,94285
2018-03-15T04:01:59.574Z,94287
2018-03-15T04:02:31.593Z,94284
2018-03-15T04:03:03.622Z,94287
2018-03-15T04:03:35.682Z,94291
2018-03-15T04:04:08.475Z,94292
2018-03-15T04:04:40.602Z,94290
2018-03-15T04:05:12.679Z,94290
2018-03-15T04:05:44.698Z,94296
2018-03-15T04:06:16.722Z,94292
2018-03-15T04:06:48.757Z,94289
2018-03-15T04:07:20.775Z,94289
2018-03-15T04:07:52.813Z,94287
2018-03-15T04:08:24.850Z,94290
2018-03-15T04:08:57.687Z,94288
2018-03-15T04:09:29.725Z,94289
2018-03-15T04:10:01.752Z,94285
2018-03-15T04:10:33.769Z,94285
2018-03-15T04:11:06.574Z,94287
2018-03-15T04:11:38.607Z,94283
2018-03-15T04:12:10.633Z,94288
2018-03-15T04:12:43.426Z,94280
2018-03-15T04:13:15.467Z,94282
2018-03-15T04:13:48.251Z,94277
2018-03-15T04:14:20.278Z,94279
2018-03-15T04:14:53.085Z,94280
2018-03-15T04:15:25.105Z,94281
2018-03-15T04:15:57.941Z,94280
2018-03-15T04:16:29.989Z,94280
2018-03-15T04:17:02.028Z,94273
2018-03-15T04:17:34.053Z,94274
2018-03-15T04:18:06.268Z,94278
2018-03-15T04:18:38.412Z,94273
2018-03-15T04:19:10.434Z,94276
2018-03-15T04:19:42.471Z,94281
2018-03-15T04:20:14.494Z,94277
2018-03-15T04:20:46.533Z,94276
2018-03-15T04:21:19.323Z,94276
2018-03-15T04:21:51.356Z,94275
2018-03-15T04:22:24.152Z,94277
2018-03-15T04:22:56.206Z,94276
2018-03-15T04:23:28.235Z,94274
2018-03-15T04:24:01.019Z,94275
2018-03-15T04:24:33.054Z,94278
2018-03-15T04:25:05.081Z,94275
2018-03-15T04:25:37.142Z,94275
2018-03-15T04:26:09.211Z,94278
2018-03-15T04:26:41.281Z,94280
2018-03-15T04:27:13.315Z,94279
2018-03-15T04:27:46.113Z,94283
2018-03-15T04:28:18.188Z,94276
2018-03-15T04:28:50.972Z,94276
2018-03-15T04:29:23.009Z,94281
2018-03-15T04:29:55.060Z,94279
2018-03-15T04:30:27.082Z,94276
2018-03-15T04:30:59.123Z,94282
2018-03-15T04:31:31.151Z,94277
2018-03-15T04:32:03.947Z,94283
2018-03-15T04:32:36.031Z,94282
2018-03-15T04:33:08.053Z,94280
2018-03-15T04:33:40.074Z,94281
2018-03-15T04:34:12.887Z,94286
2018-03-15T04:34:44.903Z,94285
2018-03-15T04:35:17.692Z,94285
2018-03-15T04:35:49.745Z,94278
2018-03-15T04:36:21.774Z,94287
2018-03-15T04:36:53.808Z,94292
2018-03-15T04:37:26.617Z,94288
2018-03-15T04:37:58.656Z,94286
2018-03-15T04:38:30.685Z,94286
2018-03-15T04:39:03.482Z,94288
2018-03-15T04:39:35.499Z,94287
2018-03-15T04:40:08.300Z,94283
2018-03-15T04:40:40.325Z,94284
2018-03-15T04:41:13.121Z,94286
2018-03-15T04:41:45.146Z,94287
2018-03-15T04:42:17.963Z,94284
2018-03-15T04:42:49.994Z,94290
2018-03-15T04:43:22.097Z,94283
2018-03-15T04:43:54.181Z,94285
2018-03-15T04:44:26.216Z,94285
2018-03-15T04:44:59.017Z,94283
2018-03-15T04:45:31.046Z,94279
2018-03-15T04:46:03.832Z,94285
2018-03-15T04:46:35.895Z,94282
2018-03-15T04:47:07.927Z,94282
2018-03-15T04:47:39.931Z,94278
2018-03-15T04:48:11.950Z,94275
2018-03-15T04:48:44.741Z,94278
2018-03-15T04:49:16.766Z,94281
2018-03-15T04:49:49.647Z,94281
2018-03-15T04:50:22.441Z,94281
2018-03-15T04:50:54.460Z,94281
2018-03-15T04:51:27.256Z,94278
2018-03-15T04:51:59.288Z,94281
2018-03-15T04:52:32.085Z,94280
2018-03-15T04:53:04.114Z,94279
2018-03-15T04:53:36.920Z,94281
2018-03-15T04:54:08.941Z,94283
2018-03-15T04:54:40.973Z,94282
2018-03-15T04:55:12.989Z,94280
2018-03-15T04:55:45.013Z,94281
2018-03-15T04:56:17.034Z,94278
2018-03-15T04:56:49.835Z,94279
2018-03-15T04:57:21.876Z,94277
2018-03-15T04:57:53.892Z,94280
2018-03-15T04:58:26.681Z,94276
2018-03-15T04:58:58.708Z,94276
2018-03-15T04:59:30.733Z,94276
2018-03-15T05:00:02.788Z,94273
2018-03-15T05:00:34.815Z,94274
2018-03-15T05:01:06.833Z,94272
2018-03-15T05:01:38.863Z,94275
2018-03-15T05:02:10.885Z,94274
2018-03-15T05:02:42.916Z,94275
2018-03-15T05:03:14.954Z,94279
2018-03-15T05:03:46.986Z,94281
2018-03-15T05:04:19.037Z,94283
2018-03-15T05:04:51.815Z,94285
2018-03-15T05:05:23.862Z,94286
2018-03-15T05:05:55.902Z,94285
2018-03-15T05:06:28.701Z,94280
2018-03-15T05:07:00.734Z,94285
2018-03-15T05:07:32.785Z,94293
2018-03-15T05:08:04.810Z,94287
2018-03-15T05:08:36.841Z,94289
2018-03-15T05:09:08.955Z,94287
2018-03-15T05:09:41.006Z,94287
2018-03-15T05:10:13.045Z,94292
2018-03-15T05:10:45.095Z,94292
2018-03-15T05:11:17.166Z,94293
2018-03-15T05:11:49.214Z,94295
2018-03-15T05:12:21.258Z,94291
2018-03-15T05:12:53.305Z,94292
2018-03-15T05:13:25.359Z,94290
2018-03-15T05:13:57.370Z,94290
2018-03-15T05:14:29.395Z,94291
2018-03-15T05:15:01.432Z,94290
2018-03-15T05:15:33.495Z,94289
2018-03-15T05:16:05.591Z,94286
2018-03-15T05:16:37.577Z,94289
2018-03-15T05:17:09.631Z,94285
2018-03-15T05:17:41.645Z,94287
2018-03-15T05:18:14.454Z,94284
2018-03-15T05:18:46.473Z,94282
2018-03-15T05:19:19.284Z,94283
2018-03-15T05:19:51.304Z,94285
2018-03-15T05:20:23.363Z,94282
2018-03-15T05:20:55.399Z,94278
2018-03-15T05:21:28.215Z,94280
2018-03-15T05:22:00.249Z,94278
2018-03-15T05:22:32.293Z,94274
2018-03-15T05:23:04.321Z,94275
2018-03-15T05:23:37.116Z,94271
2018-03-15T05:24:09.148Z,94273
2018-03-15T05:24:41.175Z,94267
2018-03-15T05:25:13.279Z,94270
2018-03-15T05:25:45.262Z,94266
2018-03-15T05:26:17.293Z,94266
2018-03-15T05:26:49.312Z,94269
2018-03-15T05:27:21.338Z,94260
2018-03-15T05:27:54.129Z,94262
2018-03-15T05:28:26.143Z,94263
2018-03-15T05:28:58.201Z,94263
2018-03-15T05:29:30.262Z,94261
2018-03-15T05:30:03.085Z,94259
2018-03-15T05:30:35.118Z,94258
2018-03-15T05:31:07.138Z,94259
2018-03-15T05:31:39.940Z,94258
2018-03-15T05:32:11.960Z,94267
2018-03-15T05:32:44.801Z,94267
2018-03-15T05:33:16.825Z,94261
2018-03-15T05:33:48.850Z,94267
2018-03-15T05:34:20.884Z,94264
2018-03-15T05:34:53.671Z,94267
2018-03-15T05:35:25.711Z,94266
2018-03-15T05:35:57.762Z,94269
2018-03-15T05:36:30.563Z,94273
2018-03-15T05:37:02.601Z,94266
2018-03-15T05:37:34.628Z,94274
2018-03-15T05:38:07.457Z,94268
2018-03-15T05:38:39.466Z,94269
2018-03-15T05:39:11.548Z,94272
2018-03-15T05:39:43.598Z,94267
2018-03-15T05:40:15.740Z,94268
2018-03-15T05:40:47.779Z,94269
2018-03-15T05:41:19.798Z,94268
2018-03-15T05:41:52.612Z,94268
2018-03-15T05:42:24.648Z,94265
2018-03-15T05:42:56.685Z,94263
2018-03-15T05:43:29.484Z,94264
2018-03-15T05:44:01.493Z,94263
2018-03-15T05:44:34.284Z,94256
2018-03-15T05:45:06.324Z,94254
2018-03-15T05:45:39.114Z,94255
2018-03-15T05:46:11.149Z,94257
2018-03-15T05:46:43.189Z,94255
2018-03-15T05:47:15.976Z,94257
2018-03-15T05:47:48.018Z,94255
2018-03-15T05:48:20.046Z,94252
2018-03-15T05:48:52.073Z,94253
2018-03-15T05:49:24.104Z,94256
2018-03-15T05:49:56.136Z,94255
2018-03-15T05:50:28.189Z,94259
2018-03-15T05:51:00.370Z,94254
2018-03-15T05:51:32.375Z,94251
2018-03-15T05:52:05.209Z,94252
2018-03-15T05:52:37.251Z,94253
2018-03-15T05:53:09.276Z,94253
2018-03-15T05:53:41.284Z,94249
2018-03-15T05:54:14.105Z,94245
2018-03-15T05:54:46.164Z,94243
2018-03-15T05:55:18.227Z,94245
2018-03-15T05:55:50.246Z,94243
2018-03-15T05:56:22.298Z,94238
2018-03-15T05:56:54.339Z,94237
2018-03-15T05:57:26.403Z,94235
2018-03-15T05:57:59.169Z,94237
2018-03-15T05:58:31.190Z,94237
2018-03-15T05:59:03.996Z,94239
2018-03-15T05:59:36.013Z,94234
2018-03-15T06:00:08.825Z,94239
2018-03-15T06:00:40.853Z,94238
2018-03-15T06:01:12.899Z,94235
2018-03-15T06:01:45.681Z,94236
2018-03-15T06:02:17.733Z,94237
2018-03-15T06:02:49.750Z,94234
2018-03-15T06:03:22.537Z,94236
2018-03-15T06:03:54.566Z,94234
2018-03-15T06:04:27.360Z,94233
2018-03-15T06:04:59.398Z,94234
2018-03-15T06:05:32.205Z,94232
2018-03-15T06:06:04.230Z,94237
2018-03-15T06:06:36.285Z,94236
2018-03-15T06:07:08.312Z,94232
2018-03-15T06:07:41.118Z,94235
2018-03-15T06:08:13.141Z,94233
2018-03-15T06:08:45.942Z,94229
2018-03-15T06:09:17.950Z,94223
2018-03-15T06:09:50.776Z,94230
2018-03-15T06:10:22.840Z,94224
2018-03-15T06:10:54.868Z,94229
2018-03-15T06:11:26.914Z,94226
2018-03-15T06:11:58.978Z,94225
2018-03-15T06:12:31.015Z,94224
2018-03-15T06:13:03.046Z,94221
2018-03-15T06:13:35.109Z,94228
2018-03-15T06:14:07.157Z,94222
2018-03-15T06:14:39.233Z,94221
2018-03-15T06:15:11.275Z,94218
2018-03-15T06:15:43.302Z,94220
2018-03-15T06:16:15.368Z,94221
2018-03-15T06:16:47.445Z,94218
2018-03-15T06:17:19.464Z,94221
2018-03-15T06:17:51.499Z,94220
2018-03-15T06:18:24.316Z,94217
2018-03-15T06:18:56.349Z,94215
2018-03-15T06:19:28.387Z,94216
2018-03-15T06:20:00.432Z,94214
2018-03-15T06:20:33.220Z,94221
2018-03-15T06:21:05.250Z,94218
2018-03-15T06:21:37.533Z,94214
2018-03-15T06:22:09.565Z,94215
2018-03-15T06:22:41.638Z,94219
2018-03-15T06:23:13.806Z,94212
2018-03-15T06:23:45.824Z,94211
2018-03-15T06:24:17.862Z,94214
2018-03-15T06:24:50.673Z,94212
2018-03-15T06:25:22.699Z,94208
2018-03-15T06:25:54.731Z,94210
2018-03-15T06:26:27.524Z,94205
2018-03-15T06:26:59.580Z,94207
2018-03-15T06:27:31.640Z,94207
2018-03-15T06:28:03.664Z,94206
2018-03-15T06:28:35.695Z,94210
2018-03-15T06:29:08.490Z,94206
2018-03-15T06:29:40.524Z,94208
2018-03-15T06:30:13.327Z,94209
2018-03-15T06:30:45.348Z,94211
2018-03-15T06:31:17.382Z,94210
2018-03-15T06:31:50.179Z,94210
2018-03-15T06:32:22.241Z,94207
2018-03-15T06:32:54.700Z,94206
2018-03-15T06:33:27.471Z,94202
2018-03-15T06:33:59.801Z,94214
2018-03-15T06:34:31.835Z,94212
2018-03-15T06:35:03.863Z,94208
2018-03-15T06:35:35.921Z,94211
2018-03-15T06:36:07.944Z,94208
2018-03-15T06:36:39.973Z,94212
2018-03-15T06:37:12.016Z,94207
2018-03-15T06:37:44.810Z,94205
2018-03-15T06:38:16.832Z,94205
2018-03-15T06:38:49.641Z,94208
2018-03-15T06:39:21.658Z,94202
2018-03-15T06:39:54.449Z,94197
2018-03-15T06:40:26.483Z,94200
2018-03-15T06:40:58.519Z,94197
2018-03-15T06:41:31.311Z,94198
2018-03-15T06:42:03.372Z,94193
2018-03-15T06:42:35.400Z,94196
2018-03-15T06:43:07.451Z,94191
2018-03-15T06:43:40.229Z,94194
2018-03-15T06:44:12.297Z,94194
2018-03-15T06:44:44.317Z,94189
2018-03-15T06:45:17.123Z,94188
2018-03-15T06:45:49.146Z,94187
2018-03-15T06:46:21.956Z,94190
2018-03-15T06:46:53.995Z,94189
2018-03-15T06:47:26.051Z,94190
2018-03-15T06:47:58.070Z,94189
2018-03-15T06:48:30.128Z,94193
2018-03-15T06:49:02.189Z,94199
2018-03-15T06:49:34.951Z,94194
2018-03-15T06:50:06.982Z,94194
2018-03-15T06:50:39.773Z,94199
2018-03-15T06:51:11.829Z,94198
2018-03-15T06:51:43.867Z,94201
2018-03-15T06:52:15.897Z,94199
2018-03-15T06:52:48.714Z,94199
2018-03-15T06:53:20.788Z,94199
2018-03-15T06:53:52.823Z,94197
2018-03-15T06:54:24.862Z,94198
2018-03-15T06:54:56.879Z,94198